createdAt,value
2022-08-22T00:02:12.891Z,57.56
2022-08-22T00:02:54.176Z,57.32
2022-08-22T00:02:58.484Z,56.50
2022-08-22T00:03:02.619Z,58.63
2022-08-22T00:04:54.781Z,57.40
2022-08-22T00:07:40.897Z,57.30
2022-08-22T00:10:54.892Z,56.58
2022-08-22T00:13:33.079Z,57.03
2022-08-22T00:16:29.105Z,56.87
2022-08-22T00:19:17.178Z,57.17
2022-08-22T00:22:03.211Z,57.29
2022-08-22T00:24:43.690Z,57.03
2022-08-22T00:27:13.443Z,57.02
2022-08-22T00:30:04.223Z,57.43
2022-08-22T00:32:42.657Z,57.50
2022-08-22T00:35:18.246Z,57.34
2022-08-22T00:38:13.722Z,57.21
2022-08-22T00:40:40.299Z,57.20
2022-08-22T00:43:09.951Z,57.06
2022-08-22T00:46:07.210Z,57.38
2022-08-22T00:48:57.412Z,57.26
2022-08-22T00:51:33.141Z,57.43
2022-08-22T00:54:11.412Z,57.44
2022-08-22T00:57:18.521Z,57.40
2022-08-22T01:00:30.246Z,57.38
2022-08-22T01:03:07.422Z,56.88
2022-08-22T01:05:49.232Z,57.60
2022-08-22T01:08:29.535Z,56.99
2022-08-22T01:11:01.856Z,57.69
2022-08-22T01:13:44.567Z,56.79
2022-08-22T01:16:35.215Z,57.34
2022-08-22T01:19:23.417Z,57.07
2022-08-22T01:22:11.649Z,57.19
2022-08-22T01:25:15.225Z,56.87
2022-08-22T01:28:17.956Z,56.67
2022-08-22T01:30:47.210Z,56.53
2022-08-22T01:33:38.814Z,57.24
2022-08-22T01:36:31.181Z,56.81
2022-08-22T01:39:16.402Z,57.51
2022-08-22T01:42:07.369Z,57.29
2022-08-22T01:44:59.415Z,56.74
2022-08-22T01:47:49.795Z,56.91
2022-08-22T01:50:41.370Z,57.31
2022-08-22T01:53:10.933Z,56.77
2022-08-22T01:55:44.730Z,56.85
2022-08-22T01:58:33.121Z,57.01
2022-08-22T02:01:16.588Z,57.50
2022-08-22T02:03:56.189Z,57.11
2022-08-22T02:06:41.420Z,57.25
2022-08-22T02:09:14.888Z,56.95
2022-08-22T02:12:05.700Z,56.98
2022-08-22T02:15:21.361Z,57.34
2022-08-22T02:18:01.251Z,57.37
2022-08-22T02:21:02.157Z,57.48
2022-08-22T02:23:53.269Z,57.14
2022-08-22T02:26:37.830Z,57.08
2022-08-22T02:29:16.429Z,57.71
2022-08-22T02:31:55.763Z,57.15
2022-08-22T02:34:32.278Z,56.75
2022-08-22T02:37:16.845Z,56.73
2022-08-22T02:39:57.149Z,56.84
2022-08-22T02:42:34.822Z,57.32
2022-08-22T02:45:20.162Z,56.99
2022-08-22T02:48:03.497Z,57.42
2022-08-22T02:50:30.065Z,57.34
2022-08-22T02:53:12.541Z,57.36
2022-08-22T02:55:50.000Z,57.89
2022-08-22T02:58:30.629Z,57.88
2022-08-22T03:01:03.302Z,57.55
2022-08-22T03:03:36.626Z,57.30
2022-08-22T03:06:29.386Z,56.98
2022-08-22T03:09:14.320Z,57.25
2022-08-22T03:11:44.859Z,58.09
2022-08-22T03:14:30.306Z,57.46
2022-08-22T03:17:19.777Z,56.92
2022-08-22T03:19:58.428Z,57.55
2022-08-22T03:22:35.601Z,57.38
2022-08-22T03:25:26.844Z,57.38
2022-08-22T03:28:01.046Z,57.01
2022-08-22T03:31:00.043Z,57.34
2022-08-22T03:33:29.566Z,57.47
2022-08-22T03:36:02.818Z,56.95
2022-08-22T03:38:32.120Z,57.25
2022-08-22T03:41:04.417Z,57.03
2022-08-22T03:43:40.044Z,57.45
2022-08-22T03:46:17.811Z,57.17
2022-08-22T03:49:16.097Z,56.97
2022-08-22T03:52:07.300Z,57.03
2022-08-22T03:55:02.150Z,57.34
2022-08-22T03:57:58.201Z,56.85
2022-08-22T04:00:55.997Z,57.27
2022-08-22T04:04:00.522Z,57.04
2022-08-22T04:06:56.394Z,57.55
2022-08-22T04:10:00.338Z,57.09
2022-08-22T04:12:55.173Z,58.06
2022-08-22T04:15:57.221Z,57.55
2022-08-22T04:19:01.854Z,57.99
2022-08-22T04:21:52.936Z,57.62
2022-08-22T04:24:52.644Z,57.25
2022-08-22T04:27:40.537Z,57.24
2022-08-22T04:30:31.445Z,57.19
2022-08-22T04:33:34.445Z,57.79
2022-08-22T04:36:24.748Z,57.63
2022-08-22T04:39:18.553Z,58.13
2022-08-22T04:42:00.692Z,58.09
2022-08-22T04:44:37.595Z,57.65
2022-08-22T04:47:22.263Z,58.24
2022-08-22T04:49:54.980Z,57.57
2022-08-22T04:52:33.442Z,57.98
2022-08-22T04:55:35.541Z,57.41
2022-08-22T04:58:17.151Z,57.49
2022-08-22T05:01:19.020Z,57.41
2022-08-22T05:03:51.535Z,57.80
2022-08-22T05:06:20.551Z,57.97
2022-08-22T05:08:53.950Z,58.63
2022-08-22T05:11:23.021Z,58.56
2022-08-22T05:14:00.160Z,58.96
2022-08-22T05:16:34.917Z,58.68
2022-08-22T05:19:07.387Z,58.63
2022-08-22T05:21:38.628Z,59.13
2022-08-22T05:24:09.869Z,59.06
2022-08-22T05:26:45.172Z,59.07
2022-08-22T05:29:12.518Z,58.80
2022-08-22T05:31:45.842Z,59.48
2022-08-22T05:34:16.709Z,59.05
2022-08-22T05:36:54.480Z,58.90
2022-08-22T05:39:25.394Z,58.82
2022-08-22T05:41:56.207Z,58.86
2022-08-22T05:44:28.210Z,58.98
2022-08-22T05:47:01.606Z,59.19
2022-08-22T05:49:31.089Z,59.63
2022-08-22T05:52:16.430Z,58.82
2022-08-22T05:54:56.903Z,59.45
2022-08-22T05:57:30.999Z,59.00
2022-08-22T06:00:10.859Z,59.84
2022-08-22T06:03:01.982Z,59.79
2022-08-22T06:05:31.542Z,59.54
2022-08-22T06:08:07.925Z,59.38
2022-08-22T06:10:44.759Z,59.57
2022-08-22T06:13:24.726Z,59.95
2022-08-22T06:16:20.470Z,60.38
2022-08-22T06:18:49.830Z,60.06
2022-08-22T06:21:27.281Z,60.29
2022-08-22T06:24:00.025Z,60.24
2022-08-22T06:26:31.063Z,60.17
2022-08-22T06:28:59.721Z,60.45
2022-08-22T06:31:32.756Z,60.70
2022-08-22T06:34:29.864Z,60.53
2022-08-22T06:36:57.893Z,60.93
2022-08-22T06:39:32.455Z,61.08
2022-08-22T06:42:16.692Z,61.25
2022-08-22T06:44:47.630Z,60.67
2022-08-22T06:47:37.347Z,61.26
2022-08-22T06:50:14.235Z,61.24
2022-08-22T06:53:17.673Z,61.67
2022-08-22T06:55:49.444Z,61.18
2022-08-22T06:58:43.773Z,62.05
2022-08-22T07:01:20.225Z,61.61
2022-08-22T07:03:50.439Z,62.28
2022-08-22T07:06:27.866Z,61.76
2022-08-22T07:08:55.739Z,61.58
2022-08-22T07:11:29.514Z,62.01
2022-08-22T07:14:17.650Z,62.19
2022-08-22T07:16:58.122Z,61.74
2022-08-22T07:19:27.047Z,62.42
2022-08-22T07:21:54.499Z,62.32
2022-08-22T07:24:25.679Z,62.16
2022-08-22T07:27:13.242Z,62.84
2022-08-22T07:30:10.127Z,62.63
2022-08-22T07:32:46.656Z,62.45
2022-08-22T07:35:17.202Z,62.71
2022-08-22T07:37:46.771Z,63.10
2022-08-22T07:40:28.372Z,63.35
2022-08-22T07:43:44.083Z,63.71
2022-08-22T07:46:10.705Z,63.82
2022-08-22T07:49:06.210Z,64.06
2022-08-22T07:51:41.525Z,63.93
2022-08-22T07:54:11.857Z,63.87
2022-08-22T07:56:43.404Z,63.78
2022-08-22T07:59:14.643Z,63.51
2022-08-22T08:01:47.166Z,62.91
2022-08-22T08:04:17.926Z,63.80
2022-08-22T08:06:48.773Z,63.57
2022-08-22T08:09:16.408Z,64.31
2022-08-22T08:11:43.869Z,63.66
2022-08-22T08:14:13.886Z,63.59
2022-08-22T08:17:13.086Z,64.75
2022-08-22T08:19:41.061Z,64.72
2022-08-22T08:22:07.855Z,64.63
2022-08-22T08:24:43.371Z,64.85
2022-08-22T08:27:36.173Z,64.86
2022-08-22T08:30:05.607Z,64.63
2022-08-22T08:32:35.462Z,65.09
2022-08-22T08:35:26.060Z,64.72
2022-08-22T08:38:07.801Z,65.33
2022-08-22T08:40:34.351Z,65.25
2022-08-22T08:43:28.107Z,65.31
2022-08-22T08:46:36.681Z,65.55
2022-08-22T08:49:43.574Z,65.65
2022-08-22T08:52:28.830Z,65.41
2022-08-22T08:55:02.437Z,65.15
2022-08-22T08:57:58.295Z,65.46
2022-08-22T09:00:44.534Z,65.73
2022-08-22T09:06:42.322Z,65.41
2022-08-22T09:09:41.901Z,65.40
2022-08-22T09:12:52.203Z,65.87
2022-08-22T09:15:39.097Z,65.23
2022-08-22T09:18:24.315Z,65.38
2022-08-22T09:21:31.455Z,64.38
2022-08-22T09:24:16.038Z,63.97
2022-08-22T09:26:57.627Z,64.13
2022-08-22T09:30:07.056Z,64.00
2022-08-22T09:32:55.690Z,63.62
2022-08-22T09:36:03.006Z,64.13
2022-08-22T09:38:50.131Z,63.82
2022-08-22T09:41:34.102Z,63.34
2022-08-22T09:44:32.712Z,63.10
2022-08-22T09:47:27.446Z,63.68
2022-08-22T09:50:19.867Z,63.45
2022-08-22T09:53:09.138Z,63.59
2022-08-22T09:56:15.155Z,62.94
2022-08-22T09:58:45.366Z,63.06
2022-08-22T10:01:53.189Z,63.05
2022-08-22T10:04:33.201Z,63.18
2022-08-22T10:07:12.188Z,62.82
2022-08-22T10:09:39.997Z,62.86
2022-08-22T10:12:13.029Z,62.37
2022-08-22T10:14:58.385Z,62.50
2022-08-22T10:17:31.437Z,61.89
2022-08-22T10:20:09.934Z,62.31
2022-08-22T10:23:00.735Z,61.99
2022-08-22T10:25:41.770Z,61.19
2022-08-22T10:28:31.628Z,61.24
2022-08-22T10:31:08.277Z,61.49
2022-08-22T10:34:13.298Z,61.30
2022-08-22T10:36:50.500Z,61.36
2022-08-22T10:39:23.546Z,61.33
2022-08-22T10:42:11.985Z,61.11
2022-08-22T10:44:49.120Z,60.77
2022-08-22T10:47:19.307Z,61.25
2022-08-22T10:49:57.129Z,61.00
2022-08-22T10:52:26.930Z,60.86
2022-08-22T10:55:09.630Z,60.50
2022-08-22T10:57:49.407Z,61.15
2022-08-22T11:00:34.582Z,60.35
2022-08-22T11:03:28.778Z,59.36
2022-08-22T11:06:02.901Z,59.41
2022-08-22T11:08:35.598Z,58.81
2022-08-22T11:11:38.016Z,59.25
2022-08-22T11:14:38.833Z,59.28
2022-08-22T11:17:30.798Z,59.03
2022-08-22T11:20:14.283Z,58.96
2022-08-22T11:23:05.126Z,58.95
2022-08-22T11:25:52.435Z,58.70
2022-08-22T11:28:38.144Z,58.48
2022-08-22T11:31:21.452Z,58.61
2022-08-22T11:34:10.303Z,58.36
2022-08-22T11:36:46.423Z,58.06
2022-08-22T11:39:30.455Z,58.00
2022-08-22T11:42:23.180Z,58.46
2022-08-22T11:44:56.647Z,58.49
2022-08-22T11:47:27.261Z,58.28
2022-08-22T11:50:14.417Z,58.61
2022-08-22T11:52:51.538Z,58.23
2022-08-22T11:55:38.733Z,58.32
2022-08-22T11:58:30.355Z,57.71
2022-08-22T12:01:02.487Z,58.15
2022-08-22T12:03:36.334Z,58.20
2022-08-22T12:06:40.487Z,57.96
2022-08-22T12:09:35.861Z,57.38
2022-08-22T12:12:24.101Z,56.96
2022-08-22T12:14:57.373Z,56.84
2022-08-22T12:17:55.236Z,57.43
2022-08-22T12:20:29.113Z,57.32
2022-08-22T12:23:48.930Z,56.78
2022-08-22T12:26:54.847Z,56.73
2022-08-22T12:29:45.002Z,57.39
2022-08-22T12:32:36.262Z,56.91
2022-08-22T12:35:20.818Z,56.99
2022-08-22T12:38:37.874Z,57.30
2022-08-22T12:41:38.234Z,56.87
2022-08-22T12:44:16.465Z,57.14
2022-08-22T12:47:05.782Z,57.89
2022-08-22T12:49:53.044Z,57.58
2022-08-22T12:52:44.884Z,57.68
2022-08-22T12:55:33.135Z,57.78
2022-08-22T12:58:15.843Z,58.33
2022-08-22T13:00:47.280Z,58.19
2022-08-22T13:03:35.485Z,58.09
2022-08-22T13:06:26.899Z,58.73
2022-08-22T13:08:54.346Z,59.04
2022-08-22T13:11:23.591Z,58.59
2022-08-22T13:13:59.400Z,58.87
2022-08-22T13:16:36.443Z,58.71
2022-08-22T13:19:13.540Z,59.14
2022-08-22T13:21:47.092Z,59.00
2022-08-22T13:24:22.484Z,59.05
2022-08-22T13:26:56.773Z,59.23
2022-08-22T13:29:42.639Z,58.75
2022-08-22T13:32:23.502Z,58.85
2022-08-22T13:34:54.939Z,58.92
2022-08-22T13:37:25.913Z,59.14
2022-08-22T13:39:59.733Z,59.10
2022-08-22T13:42:30.913Z,58.53
2022-08-22T13:45:02.271Z,59.19
2022-08-22T13:47:31.711Z,59.27
2022-08-22T13:50:07.956Z,59.28
2022-08-22T13:53:00.942Z,59.54
2022-08-22T13:55:35.372Z,59.67
2022-08-22T13:58:11.497Z,60.13
2022-08-22T14:01:07.502Z,59.90
2022-08-22T14:03:48.776Z,59.91
2022-08-22T14:06:32.774Z,59.61
2022-08-22T14:09:31.394Z,60.20
2022-08-22T14:12:12.109Z,60.03
2022-08-22T14:14:41.968Z,59.75
2022-08-22T14:17:21.149Z,60.12
2022-08-22T14:19:58.891Z,59.58
2022-08-22T14:22:31.744Z,59.97
2022-08-22T14:25:03.057Z,59.69
2022-08-22T14:27:56.094Z,60.00
2022-08-22T14:30:27.291Z,59.96
2022-08-22T14:33:13.975Z,59.93
2022-08-22T14:35:53.100Z,59.88
2022-08-22T14:38:46.232Z,59.57
2022-08-22T14:41:56.149Z,59.91
2022-08-22T14:45:01.693Z,60.20
2022-08-22T14:48:30.409Z,60.50
2022-08-22T14:50:46.176Z,60.57
2022-08-22T14:53:24.945Z,61.15
2022-08-22T14:56:18.183Z,60.67
2022-08-22T14:58:47.936Z,60.69
2022-08-22T15:01:18.865Z,61.15
2022-08-22T15:03:59.778Z,61.27
2022-08-22T15:06:31.149Z,60.77
2022-08-22T15:09:00.070Z,60.85
2022-08-22T15:11:32.004Z,60.77
2022-08-22T15:14:01.680Z,60.91
2022-08-22T15:16:36.476Z,61.19
2022-08-22T15:19:41.106Z,61.05
2022-08-22T15:22:25.742Z,60.57
2022-08-22T15:25:03.014Z,60.53
2022-08-22T15:27:32.209Z,60.85
2022-08-22T15:30:02.770Z,60.92
2022-08-22T15:32:31.489Z,60.95
2022-08-22T15:35:14.205Z,60.47
2022-08-22T15:37:55.041Z,60.50
2022-08-22T15:40:36.438Z,60.71
2022-08-22T15:43:25.729Z,60.36
2022-08-22T15:46:36.847Z,61.00
2022-08-22T15:49:28.434Z,60.70
2022-08-22T15:52:11.204Z,60.61
2022-08-22T15:54:46.852Z,59.91
2022-08-22T15:57:25.344Z,60.08
2022-08-22T15:59:57.188Z,60.29
2022-08-22T16:02:36.983Z,60.37
2022-08-22T16:05:26.308Z,59.75
2022-08-22T16:08:05.562Z,60.05
2022-08-22T16:10:37.719Z,59.90
2022-08-22T16:13:38.154Z,59.79
2022-08-22T16:16:05.406Z,57.73
2022-08-22T16:18:42.688Z,57.09
2022-08-22T16:21:13.345Z,57.12
2022-08-22T16:23:49.649Z,58.04
2022-08-22T16:26:30.133Z,58.01
2022-08-22T16:29:18.403Z,56.84
2022-08-22T16:31:45.019Z,56.60
2022-08-22T16:34:20.571Z,55.33
2022-08-22T16:37:08.727Z,55.48
2022-08-22T16:40:05.956Z,55.56
2022-08-22T16:42:39.804Z,56.42
2022-08-22T16:45:24.513Z,55.90
2022-08-22T16:47:58.533Z,55.94
2022-08-22T16:50:30.510Z,55.88
2022-08-22T16:53:10.599Z,55.79
2022-08-22T16:55:40.837Z,55.89
2022-08-22T16:58:40.229Z,56.19
2022-08-22T17:01:24.256Z,56.25
2022-08-22T17:04:14.986Z,56.11
2022-08-22T17:06:44.201Z,55.70
2022-08-22T17:09:29.062Z,55.30
2022-08-22T17:12:18.870Z,55.19
2022-08-22T17:15:07.134Z,55.29
2022-08-22T17:17:49.305Z,55.08
2022-08-22T17:20:39.566Z,55.70
2022-08-22T17:23:20.898Z,55.63
2022-08-22T17:26:01.446Z,55.31
2022-08-22T17:28:49.922Z,55.41
2022-08-22T17:31:31.310Z,55.65
2022-08-22T17:34:19.498Z,56.16
2022-08-22T17:36:55.251Z,55.50
2022-08-22T17:39:35.232Z,55.54
2022-08-22T17:42:26.678Z,56.23
2022-08-22T17:45:07.952Z,55.64
2022-08-22T17:47:44.471Z,55.98
2022-08-22T17:50:25.029Z,56.45
2022-08-22T17:52:57.271Z,56.41
2022-08-22T17:55:29.130Z,56.91
2022-08-22T17:58:06.366Z,57.18
2022-08-22T18:00:41.133Z,57.21
2022-08-22T18:03:15.771Z,57.45
2022-08-22T18:05:53.147Z,57.20
2022-08-22T18:11:31.255Z,58.09
2022-08-22T18:14:12.494Z,57.46
2022-08-22T18:16:41.974Z,57.36
2022-08-22T18:19:17.291Z,58.08
2022-08-22T18:22:14.221Z,58.07
2022-08-22T18:24:51.105Z,58.07
2022-08-22T18:27:47.536Z,58.17
2022-08-22T18:30:15.942Z,58.44
2022-08-22T18:32:56.153Z,58.89
2022-08-22T18:35:40.318Z,58.66
2022-08-22T18:38:23.688Z,59.19
2022-08-22T18:40:56.662Z,58.64
2022-08-22T18:43:38.870Z,58.96
2022-08-22T18:46:39.866Z,59.68
2022-08-22T18:49:19.682Z,59.37
2022-08-22T18:52:20.234Z,59.70
2022-08-22T18:55:22.037Z,59.88
2022-08-22T18:58:14.327Z,59.66
2022-08-22T19:00:58.592Z,60.12
2022-08-22T19:03:47.748Z,60.52
2022-08-22T19:06:29.461Z,60.35
2022-08-22T19:09:08.168Z,60.60
2022-08-22T19:12:01.874Z,60.93
2022-08-22T19:14:59.803Z,61.06
2022-08-22T19:18:03.388Z,62.08
2022-08-22T19:20:54.637Z,61.67
2022-08-22T19:23:33.134Z,62.25
2022-08-22T19:26:36.829Z,62.55
2022-08-22T19:29:18.212Z,62.36
2022-08-22T19:31:54.585Z,62.30
2022-08-22T19:34:31.997Z,62.09
2022-08-22T19:37:31.947Z,61.68
2022-08-22T19:40:10.165Z,62.12
2022-08-22T19:42:39.719Z,62.64
2022-08-22T19:45:18.518Z,62.74
2022-08-22T19:47:53.984Z,62.06
2022-08-22T19:50:21.295Z,62.51
2022-08-22T19:53:04.118Z,62.28
2022-08-22T19:55:49.146Z,62.65
2022-08-22T19:58:42.442Z,62.22
2022-08-22T20:01:38.290Z,62.06
2022-08-22T20:04:37.109Z,62.06
2022-08-22T20:07:15.966Z,62.46
2022-08-22T20:09:57.844Z,61.96
2022-08-22T20:12:33.105Z,62.05
2022-08-22T20:15:18.327Z,62.41
2022-08-22T20:18:11.637Z,61.81
2022-08-22T20:20:38.997Z,61.89
2022-08-22T20:23:20.564Z,62.39
2022-08-22T20:25:50.258Z,62.23
2022-08-22T20:28:25.922Z,62.65
2022-08-22T20:30:57.813Z,62.60
2022-08-22T20:33:28.545Z,63.06
2022-08-22T20:36:01.405Z,62.36
2022-08-22T20:38:38.135Z,63.13
2022-08-22T20:41:24.249Z,63.47
2022-08-22T20:43:57.486Z,63.27
2022-08-22T20:46:55.347Z,64.01
2022-08-22T20:49:31.268Z,64.13
2022-08-22T20:52:00.694Z,63.92
2022-08-22T20:54:32.957Z,64.73
2022-08-22T20:57:14.353Z,64.40
2022-08-22T20:59:42.660Z,65.10
2022-08-22T21:02:26.382Z,64.62
2022-08-22T21:05:08.546Z,65.48
2022-08-22T21:07:46.172Z,65.51
2022-08-22T21:10:46.047Z,65.48
2022-08-22T21:13:29.457Z,65.14
2022-08-22T21:16:00.178Z,65.00
2022-08-22T21:18:35.852Z,64.93
2022-08-22T21:21:17.253Z,64.36
2022-08-22T21:24:00.584Z,64.11
2022-08-22T21:26:30.816Z,64.50
2022-08-22T21:29:32.698Z,64.67
2022-08-22T21:32:11.601Z,64.22
2022-08-22T21:34:43.825Z,64.57
2022-08-22T21:37:43.339Z,64.75
2022-08-22T21:40:20.611Z,64.49
2022-08-22T21:43:03.749Z,64.63
2022-08-22T21:45:38.251Z,64.08
2022-08-22T21:48:55.002Z,64.44
2022-08-22T21:51:28.335Z,64.86
2022-08-22T21:54:25.694Z,65.33
2022-08-22T21:56:58.751Z,64.76
2022-08-22T21:59:50.729Z,65.06
2022-08-22T22:02:29.131Z,64.93
2022-08-22T22:04:59.128Z,65.21
2022-08-22T22:07:27.231Z,64.88
2022-08-22T22:09:55.146Z,64.51
2022-08-22T22:12:22.352Z,65.16
2022-08-22T22:14:49.473Z,64.73
2022-08-22T22:17:17.729Z,64.62
2022-08-22T22:19:44.858Z,64.79
2022-08-22T22:22:11.497Z,64.93
2022-08-22T22:24:38.112Z,64.66
2022-08-22T22:27:05.036Z,64.83
2022-08-22T22:29:32.733Z,64.98
2022-08-22T22:31:59.497Z,64.97
2022-08-22T22:34:26.170Z,64.86
2022-08-22T22:36:53.958Z,65.42
2022-08-22T22:39:20.782Z,65.33
2022-08-22T22:41:49.051Z,64.89
2022-08-22T22:44:15.809Z,65.54
2022-08-22T22:46:42.418Z,65.82
2022-08-22T22:49:09.061Z,65.92
2022-08-22T22:51:35.691Z,65.72
2022-08-22T22:54:02.306Z,66.12
2022-08-22T22:56:28.996Z,65.85
2022-08-22T22:59:00.637Z,66.13
2022-08-22T23:01:28.052Z,66.29
2022-08-22T23:03:59.511Z,66.71
2022-08-22T23:06:32.831Z,66.61
2022-08-22T23:08:59.540Z,66.64
2022-08-22T23:11:30.496Z,66.76
2022-08-22T23:13:57.320Z,67.05
2022-08-22T23:16:26.822Z,67.13
2022-08-22T23:18:53.742Z,66.87
2022-08-22T23:21:24.890Z,66.92
2022-08-22T23:23:56.456Z,66.16
2022-08-22T23:26:23.832Z,67.07
2022-08-22T23:28:50.496Z,66.80
2022-08-22T23:31:30.364Z,67.25
2022-08-22T23:34:01.186Z,67.47
2022-08-22T23:36:29.571Z,67.58
2022-08-22T23:38:56.348Z,67.30
2022-08-22T23:41:23.014Z,66.98
2022-08-22T23:43:53.551Z,67.22
2022-08-22T23:46:22.590Z,67.56
2022-08-22T23:48:49.341Z,67.80
2022-08-22T23:51:18.905Z,68.19
2022-08-22T23:53:50.122Z,67.65
2022-08-22T23:56:22.206Z,67.49
2022-08-22T23:58:50.253Z,67.46
